createdAt,value
2018-03-21T00:02:39.109Z,10.6
2018-03-21T00:12:38.098Z,10.6
2018-03-21T00:22:37.430Z,10.6
2018-03-21T00:32:36.624Z,10.6
2018-03-21T00:42:35.757Z,10.6
2018-03-21T00:52:35.100Z,10.5
2018-03-21T01:02:34.499Z,10.4
2018-03-21T01:12:33.479Z,10.3
2018-03-21T01:22:32.662Z,10.1
2018-03-21T01:32:32.093Z,10.1
2018-03-21T01:42:31.081Z,10.3
2018-03-21T01:52:30.324Z,10.3
2018-03-21T02:02:29.656Z,10.2
2018-03-21T02:12:28.894Z,10.1
2018-03-21T02:22:28.219Z,10.1
2018-03-21T02:32:27.231Z,10.1
2018-03-21T02:42:26.531Z,10.1
2018-03-21T02:52:25.697Z,10.1
2018-03-21T03:02:25.208Z,10.1
2018-03-21T03:12:23.718Z,10.1
2018-03-21T03:22:22.999Z,10
2018-03-21T03:32:22.354Z,10
2018-03-21T03:42:21.693Z,10
2018-03-21T03:52:20.563Z,10
2018-03-21T04:02:20.329Z,10
2018-03-21T04:12:18.880Z,10.1
2018-03-21T04:22:18.468Z,10.1
2018-03-21T04:32:17.429Z,10
2018-03-21T04:42:17.160Z,10
2018-03-21T04:52:16.037Z,8.3
2018-03-21T05:02:15.102Z,7.4
2018-03-21T05:12:14.660Z,7.1
2018-03-21T05:22:13.810Z,6.9
2018-03-21T05:32:12.967Z,7
2018-03-21T05:42:12.280Z,7.2
2018-03-21T05:52:11.356Z,7.3
2018-03-21T06:02:10.594Z,7.3
2018-03-21T06:12:09.632Z,7.4
2018-03-21T06:22:08.999Z,7.6
2018-03-21T06:32:08.256Z,7.7
2018-03-21T06:42:07.041Z,7.7
2018-03-21T06:52:06.565Z,7.8
2018-03-21T07:02:06.021Z,7.8
2018-03-21T07:12:05.023Z,8.2
2018-03-21T07:22:04.243Z,8.4
2018-03-21T07:32:03.076Z,8.2
2018-03-21T07:42:02.590Z,7.9
2018-03-21T07:52:01.768Z,8.1
2018-03-21T08:02:01.053Z,8.7
2018-03-21T08:11:59.966Z,9.2
2018-03-21T08:21:59.422Z,10
2018-03-21T08:31:58.727Z,10.1
2018-03-21T08:41:57.597Z,10.5
2018-03-21T08:51:56.996Z,10.4
2018-03-21T09:01:56.165Z,10.6
2018-03-21T09:11:55.520Z,10.6
2018-03-21T09:21:54.418Z,10.5
2018-03-21T09:31:53.561Z,10.1
2018-03-21T09:41:53.025Z,9.8
2018-03-21T09:51:52.563Z,9.6
2018-03-21T10:01:51.831Z,9.4
2018-03-21T10:11:50.484Z,10.1
2018-03-21T10:21:49.981Z,10.6
2018-03-21T10:31:49.170Z,11.5
2018-03-21T10:41:48.392Z,11.4
2018-03-21T10:51:47.231Z,11.4
2018-03-21T11:01:46.516Z,11.7
2018-03-21T11:11:45.975Z,12.1
2018-03-21T11:21:45.336Z,13.7
2018-03-21T11:31:44.402Z,14.3
2018-03-21T11:41:43.435Z,15.2
2018-03-21T11:51:42.724Z,15.3
2018-03-21T12:01:41.815Z,14.9
2018-03-21T12:11:41.296Z,13.9
2018-03-21T12:21:40.405Z,12.9
2018-03-21T12:31:39.681Z,13.8
2018-03-21T12:41:38.778Z,12.6
2018-03-21T12:51:37.791Z,11.5
2018-03-21T13:01:36.974Z,9.8
2018-03-21T13:11:36.183Z,9.3
2018-03-21T13:21:35.356Z,8.3
2018-03-21T13:31:34.601Z,7.2
2018-03-21T13:41:33.713Z,6.6
2018-03-21T13:51:33.246Z,6.3
2018-03-21T14:01:32.402Z,6.2
2018-03-21T14:11:31.961Z,5.5
2018-03-21T14:21:31.404Z,5.3
2018-03-21T14:31:30.006Z,5
2018-03-21T14:41:29.324Z,5.1
2018-03-21T14:51:28.248Z,4.8
2018-03-21T15:01:27.609Z,4.4
2018-03-21T15:11:27.001Z,4.5
2018-03-21T15:21:25.933Z,4.5
2018-03-21T15:31:25.821Z,4.4
2018-03-21T15:41:24.168Z,4.1
2018-03-21T15:51:23.734Z,3.9
2018-03-21T16:01:22.639Z,3.4
2018-03-21T16:11:22.089Z,3.3
2018-03-21T16:21:21.028Z,3.7
2018-03-21T16:31:20.704Z,5.1
2018-03-21T16:41:19.339Z,5.7
2018-03-21T16:51:18.814Z,6.1
2018-03-21T17:01:18.011Z,6.4
2018-03-21T17:11:17.104Z,6.6
2018-03-21T17:21:16.398Z,6.8
2018-03-21T17:31:15.804Z,6.7
2018-03-21T17:41:15.041Z,6.8
2018-03-21T17:51:13.947Z,6.7
2018-03-21T18:01:13.052Z,6.5
2018-03-21T18:11:12.956Z,6.5
2018-03-21T18:21:11.783Z,6.5
2018-03-21T18:31:11.023Z,6.5
2018-03-21T18:41:10.435Z,6.6
2018-03-21T18:51:09.314Z,6.6
2018-03-21T19:01:09.036Z,6.6
2018-03-21T19:11:07.928Z,6.4
2018-03-21T19:21:07.210Z,6.6
2018-03-21T19:31:05.866Z,6.6
2018-03-21T19:41:05.394Z,6.6
2018-03-21T19:51:04.571Z,6.4
2018-03-21T20:01:04.192Z,6.3
2018-03-21T20:11:03.264Z,6.1
2018-03-21T20:21:02.692Z,6.1
2018-03-21T20:31:01.833Z,6.1
2018-03-21T20:41:00.838Z,6
2018-03-21T20:50:59.968Z,5.9
2018-03-21T21:00:59.083Z,5.9
2018-03-21T21:10:58.076Z,5.9
2018-03-21T21:20:57.464Z,5.9
2018-03-21T21:30:56.587Z,6
2018-03-21T21:40:56.213Z,5.9
2018-03-21T21:50:54.940Z,5.8
2018-03-21T22:00:54.122Z,5.8
2018-03-21T22:10:53.856Z,5.8
2018-03-21T22:20:52.676Z,5.8
2018-03-21T22:30:52.405Z,5.8
2018-03-21T22:40:51.301Z,5.8
2018-03-21T22:50:50.155Z,5.8
2018-03-21T23:00:49.312Z,5.9
2018-03-21T23:10:48.756Z,5.9
2018-03-21T23:20:48.523Z,6
2018-03-21T23:30:47.288Z,6
2018-03-21T23:40:46.424Z,6.1
2018-03-21T23:50:45.552Z,6.1
